createdAt,value
2022-10-06T00:01:09.791Z,15.31
2022-10-06T00:03:38.756Z,15.42
2022-10-06T00:06:07.525Z,15.37
2022-10-06T00:08:38.366Z,15.50
2022-10-06T00:11:06.843Z,15.26
2022-10-06T00:13:35.213Z,15.21
2022-10-06T00:16:04.864Z,15.13
2022-10-06T00:18:32.885Z,15.29
2022-10-06T00:21:04.171Z,15.25
2022-10-06T00:23:32.643Z,15.30
2022-10-06T00:26:00.572Z,15.24
2022-10-06T00:28:29.060Z,15.34
2022-10-06T00:30:58.155Z,15.14
2022-10-06T00:33:27.416Z,15.29
2022-10-06T00:35:58.547Z,15.29
2022-10-06T00:38:27.999Z,15.32
2022-10-06T00:40:56.408Z,15.28
2022-10-06T00:43:47.868Z,15.06
2022-10-06T00:46:21.532Z,15.20
2022-10-06T00:49:00.757Z,15.13
2022-10-06T00:51:30.561Z,15.11
2022-10-06T00:53:58.816Z,15.14
2022-10-06T00:56:27.143Z,15.24
2022-10-06T00:58:54.988Z,15.23
2022-10-06T01:01:22.981Z,15.05
2022-10-06T01:04:00.429Z,14.95
2022-10-06T01:06:28.826Z,15.06
2022-10-06T01:08:56.743Z,15.08
2022-10-06T01:11:24.667Z,15.20
2022-10-06T01:13:52.556Z,15.07
2022-10-06T01:16:24.344Z,15.08
2022-10-06T01:18:56.384Z,15.15
2022-10-06T01:21:30.919Z,14.98
2022-10-06T01:24:02.231Z,15.10
2022-10-06T01:26:32.822Z,15.14
2022-10-06T01:29:01.052Z,15.12
2022-10-06T01:31:30.367Z,15.15
2022-10-06T01:33:58.731Z,15.08
2022-10-06T01:36:27.093Z,15.06
2022-10-06T01:38:54.991Z,15.06
2022-10-06T01:41:25.628Z,15.06
2022-10-06T01:43:53.429Z,15.07
2022-10-06T01:46:21.954Z,15.10
2022-10-06T01:48:50.265Z,15.14
2022-10-06T01:51:18.312Z,15.20
2022-10-06T01:53:46.179Z,15.16
2022-10-06T01:56:14.155Z,15.12
2022-10-06T01:58:44.420Z,15.25
2022-10-06T02:01:13.631Z,15.23
2022-10-06T02:03:42.059Z,15.20
2022-10-06T02:06:11.737Z,15.13
2022-10-06T02:08:40.040Z,15.15
2022-10-06T02:11:10.099Z,15.32
2022-10-06T02:13:43.744Z,15.30
2022-10-06T02:16:13.837Z,15.19
2022-10-06T02:18:43.134Z,15.16
2022-10-06T02:21:16.733Z,15.05
2022-10-06T02:23:44.805Z,14.99
2022-10-06T02:26:14.171Z,15.27
2022-10-06T02:28:42.200Z,14.94
2022-10-06T02:31:14.314Z,14.82
2022-10-06T02:33:44.772Z,14.88
2022-10-06T02:36:14.882Z,14.90
2022-10-06T02:38:42.811Z,14.63
2022-10-06T02:41:11.686Z,14.77
2022-10-06T02:43:40.080Z,14.84
2022-10-06T02:46:10.456Z,14.88
2022-10-06T02:48:42.414Z,14.49
2022-10-06T02:51:13.668Z,14.62
2022-10-06T02:53:44.411Z,14.84
2022-10-06T02:56:16.048Z,14.73
2022-10-06T02:58:44.704Z,14.79
2022-10-06T03:01:19.917Z,14.71
2022-10-06T03:03:49.480Z,14.52
2022-10-06T03:06:24.172Z,14.56
2022-10-06T03:09:18.820Z,14.36
2022-10-06T03:11:46.741Z,14.57
2022-10-06T03:14:25.097Z,14.45
2022-10-06T03:16:54.890Z,14.53
2022-10-06T03:19:27.974Z,14.67
2022-10-06T03:21:56.518Z,14.34
2022-10-06T03:24:36.312Z,14.50
2022-10-06T03:27:04.377Z,14.57
2022-10-06T03:29:32.457Z,14.72
2022-10-06T03:32:00.525Z,14.73
2022-10-06T03:34:30.867Z,14.77
2022-10-06T03:37:00.389Z,14.76
2022-10-06T03:39:29.506Z,14.52
2022-10-06T03:41:57.472Z,14.74
2022-10-06T03:44:25.514Z,14.47
2022-10-06T03:46:53.579Z,14.66
2022-10-06T03:49:21.599Z,14.38
2022-10-06T03:51:50.885Z,14.36
2022-10-06T03:54:25.748Z,14.49
2022-10-06T03:56:54.740Z,14.44
2022-10-06T03:59:23.014Z,14.14
2022-10-06T04:01:53.053Z,14.10
2022-10-06T04:04:28.050Z,14.30
2022-10-06T04:07:02.687Z,14.33
2022-10-06T04:09:30.784Z,14.27
2022-10-06T04:11:58.755Z,14.28
2022-10-06T04:14:26.654Z,14.26
2022-10-06T04:16:57.124Z,14.33
2022-10-06T04:19:45.250Z,14.34
2022-10-06T04:22:15.719Z,14.22
2022-10-06T04:24:43.694Z,14.17
2022-10-06T04:27:29.666Z,14.25
2022-10-06T04:30:10.338Z,14.24
2022-10-06T04:32:38.478Z,14.12
2022-10-06T04:35:07.117Z,14.20
2022-10-06T04:37:36.443Z,14.26
2022-10-06T04:40:05.325Z,14.36
2022-10-06T04:42:35.405Z,14.35
2022-10-06T04:45:07.810Z,14.43
2022-10-06T04:47:37.426Z,14.33
2022-10-06T04:50:06.085Z,14.51
2022-10-06T04:52:33.933Z,14.59
2022-10-06T04:55:03.295Z,14.57
2022-10-06T04:57:31.365Z,14.79
2022-10-06T05:00:17.969Z,14.64
2022-10-06T05:02:47.530Z,14.57
2022-10-06T05:05:15.620Z,14.29
2022-10-06T05:07:44.962Z,14.44
2022-10-06T05:10:14.782Z,14.39
2022-10-06T05:12:43.083Z,14.27
2022-10-06T05:15:12.542Z,14.46
2022-10-06T05:17:40.869Z,14.39
2022-10-06T05:20:10.947Z,14.10
2022-10-06T05:22:39.137Z,14.15
2022-10-06T05:25:07.958Z,14.13
2022-10-06T05:27:37.182Z,14.13
2022-10-06T05:30:05.717Z,14.40
2022-10-06T05:32:36.109Z,14.29
2022-10-06T05:35:05.424Z,14.30
2022-10-06T05:37:33.354Z,14.27
2022-10-06T05:40:02.509Z,14.21
2022-10-06T05:42:31.102Z,14.14
2022-10-06T05:45:01.470Z,14.01
2022-10-06T05:47:29.899Z,14.02
2022-10-06T05:49:57.905Z,13.90
2022-10-06T05:52:25.985Z,14.04
2022-10-06T05:54:54.516Z,13.82
2022-10-06T05:57:22.617Z,13.78
2022-10-06T05:59:50.516Z,13.81
2022-10-06T06:02:20.307Z,13.77
2022-10-06T06:04:51.479Z,13.78
2022-10-06T06:07:19.637Z,14.06
2022-10-06T06:09:48.284Z,14.37
2022-10-06T06:12:16.611Z,14.39
2022-10-06T06:15:11.492Z,14.46
2022-10-06T06:17:56.667Z,14.25
2022-10-06T06:20:24.627Z,14.30
2022-10-06T06:22:53.424Z,14.05
2022-10-06T06:25:24.226Z,14.33
2022-10-06T06:27:52.141Z,14.49
2022-10-06T06:30:21.263Z,14.51
2022-10-06T06:32:49.189Z,14.37
2022-10-06T06:35:18.495Z,14.23
2022-10-06T06:37:48.839Z,14.11
2022-10-06T06:40:17.023Z,14.37
2022-10-06T06:42:44.951Z,14.50
2022-10-06T06:45:29.089Z,14.49
2022-10-06T06:48:15.463Z,14.71
2022-10-06T06:50:45.785Z,14.36
2022-10-06T06:53:16.166Z,14.74
2022-10-06T06:55:51.087Z,14.75
2022-10-06T06:58:21.740Z,14.79
2022-10-06T07:00:50.456Z,14.74
2022-10-06T07:03:32.966Z,14.61
2022-10-06T07:06:10.485Z,14.65
2022-10-06T07:08:42.661Z,14.74
2022-10-06T07:11:15.863Z,14.80
2022-10-06T07:13:46.064Z,15.06
2022-10-06T07:16:29.841Z,14.70
2022-10-06T07:19:15.797Z,15.02
2022-10-06T07:22:03.164Z,15.10
2022-10-06T07:24:49.018Z,15.06
2022-10-06T07:27:16.958Z,14.75
2022-10-06T07:29:46.782Z,15.17
2022-10-06T07:32:15.132Z,15.30
2022-10-06T07:37:17.684Z,15.02
2022-10-06T07:39:49.552Z,15.24
2022-10-06T07:42:18.467Z,14.94
2022-10-06T07:45:07.766Z,15.15
2022-10-06T07:47:38.890Z,15.90
2022-10-06T07:50:07.928Z,15.59
2022-10-06T07:52:39.363Z,16.13
2022-10-06T07:55:09.069Z,16.36
2022-10-06T07:57:46.047Z,15.99
2022-10-06T08:00:15.616Z,16.13
2022-10-06T08:02:43.576Z,16.15
2022-10-06T08:05:11.624Z,15.88
2022-10-06T08:07:40.989Z,15.87
2022-10-06T08:10:09.649Z,15.94
2022-10-06T08:12:40.103Z,15.77
2022-10-06T08:15:11.334Z,16.23
2022-10-06T08:17:39.581Z,16.14
2022-10-06T08:20:09.787Z,16.15
2022-10-06T08:22:38.774Z,16.10
2022-10-06T08:25:10.735Z,16.10
2022-10-06T08:27:40.443Z,15.98
2022-10-06T08:30:09.269Z,16.11
2022-10-06T08:32:37.472Z,15.93
2022-10-06T08:35:05.632Z,16.10
2022-10-06T08:37:33.445Z,16.05
2022-10-06T08:40:01.316Z,16.24
2022-10-06T08:42:39.685Z,16.16
2022-10-06T08:45:14.522Z,16.27
2022-10-06T08:47:51.639Z,16.39
2022-10-06T08:50:21.348Z,16.56
2022-10-06T08:53:00.789Z,17.02
2022-10-06T08:55:36.233Z,17.30
2022-10-06T08:58:31.219Z,17.35
2022-10-06T09:01:11.159Z,17.42
2022-10-06T09:03:39.251Z,17.59
2022-10-06T09:06:14.852Z,18.00
2022-10-06T09:08:51.089Z,18.51
2022-10-06T09:11:38.094Z,18.16
2022-10-06T09:14:15.184Z,18.90
2022-10-06T09:16:47.869Z,18.67
2022-10-06T09:19:20.378Z,18.34
2022-10-06T09:21:51.345Z,17.83
2022-10-06T09:24:24.577Z,17.48
2022-10-06T09:26:53.042Z,17.27
2022-10-06T09:29:22.360Z,17.48
2022-10-06T09:31:51.013Z,17.93
2022-10-06T09:34:29.101Z,18.41
2022-10-06T09:37:02.025Z,18.41
2022-10-06T09:39:36.396Z,18.59
2022-10-06T09:42:12.400Z,19.11
2022-10-06T09:44:50.841Z,19.12
2022-10-06T09:47:34.742Z,18.25
2022-10-06T09:50:04.633Z,17.60
2022-10-06T09:52:32.520Z,17.40
2022-10-06T09:55:12.883Z,17.12
2022-10-06T09:57:50.054Z,18.13
2022-10-06T10:00:30.393Z,18.56
2022-10-06T10:03:00.966Z,18.76
2022-10-06T10:05:31.035Z,18.75
2022-10-06T10:08:02.757Z,19.03
2022-10-06T10:10:31.130Z,19.55
2022-10-06T10:13:00.665Z,19.40
2022-10-06T10:15:33.297Z,19.40
2022-10-06T10:18:04.055Z,19.48
2022-10-06T10:20:36.377Z,19.65
2022-10-06T10:23:08.288Z,19.39
2022-10-06T10:25:53.933Z,19.32
2022-10-06T10:28:51.612Z,19.82
2022-10-06T10:31:32.067Z,19.65
2022-10-06T10:34:23.080Z,19.97
2022-10-06T10:36:57.508Z,20.17
2022-10-06T10:39:33.472Z,19.83
2022-10-06T10:42:07.421Z,20.21
2022-10-06T10:44:38.860Z,20.59
2022-10-06T10:47:16.010Z,19.96
2022-10-06T10:49:49.631Z,19.94
2022-10-06T10:52:22.028Z,20.43
2022-10-06T10:55:02.166Z,20.75
2022-10-06T10:57:37.902Z,20.68
2022-10-06T11:00:09.568Z,20.00
2022-10-06T11:02:41.570Z,19.22
2022-10-06T11:05:17.548Z,19.70
2022-10-06T11:07:55.705Z,19.89
2022-10-06T11:10:27.717Z,20.58
2022-10-06T11:13:11.206Z,19.89
2022-10-06T11:15:57.492Z,19.74
2022-10-06T11:18:44.103Z,19.57
2022-10-06T11:21:14.831Z,19.89
2022-10-06T11:23:53.551Z,20.04
2022-10-06T11:27:00.529Z,20.72
2022-10-06T11:29:36.424Z,20.31
2022-10-06T11:32:17.769Z,20.08
2022-10-06T11:34:49.644Z,20.47
2022-10-06T11:37:26.292Z,19.96
2022-10-06T11:40:04.240Z,19.57
2022-10-06T11:42:42.104Z,19.81
2022-10-06T11:45:13.879Z,20.56
2022-10-06T11:48:00.471Z,20.89
2022-10-06T11:50:38.290Z,21.36
2022-10-06T11:53:07.449Z,21.22
2022-10-06T11:55:35.367Z,21.75
2022-10-06T11:58:40.747Z,21.23
2022-10-06T12:01:04.812Z,21.47
2022-10-06T12:03:48.237Z,21.07
2022-10-06T12:06:57.691Z,21.58
2022-10-06T12:09:51.703Z,20.78
2022-10-06T12:12:42.255Z,21.04
2022-10-06T12:18:30.717Z,20.87
2022-10-06T12:21:10.150Z,21.77
2022-10-06T12:23:48.322Z,21.11
2022-10-06T12:26:36.054Z,21.18
2022-10-06T12:29:22.450Z,21.71
2022-10-06T12:32:00.245Z,22.17
2022-10-06T12:35:00.281Z,21.30
2022-10-06T12:37:38.237Z,20.60
2022-10-06T12:40:40.280Z,20.95
2022-10-06T12:43:32.429Z,20.97
2022-10-06T12:46:03.249Z,20.91
2022-10-06T12:48:39.411Z,20.61
2022-10-06T12:51:19.168Z,21.09
2022-10-06T12:53:56.757Z,20.94
2022-10-06T12:56:29.313Z,21.35
2022-10-06T12:58:58.818Z,20.78
2022-10-06T13:01:28.244Z,21.13
2022-10-06T13:03:56.346Z,21.74
2022-10-06T13:06:26.070Z,21.10
2022-10-06T13:09:06.249Z,21.54
2022-10-06T13:11:34.176Z,22.09
2022-10-06T13:14:11.709Z,22.29
2022-10-06T13:16:41.858Z,21.98
2022-10-06T13:19:18.291Z,21.72
2022-10-06T13:21:47.531Z,21.21
2022-10-06T13:24:19.378Z,21.62
2022-10-06T13:26:48.122Z,21.34
2022-10-06T13:29:21.790Z,21.70
2022-10-06T13:31:53.098Z,21.48
2022-10-06T13:34:28.716Z,21.30
2022-10-06T13:36:57.436Z,21.48
2022-10-06T13:39:27.013Z,21.90
2022-10-06T13:41:59.225Z,21.95
2022-10-06T13:44:36.334Z,21.60
2022-10-06T13:47:06.843Z,21.46
2022-10-06T13:49:42.043Z,21.42
2022-10-06T13:52:17.967Z,21.46
2022-10-06T13:54:50.890Z,21.15
2022-10-06T13:57:35.643Z,21.51
2022-10-06T14:00:07.948Z,21.77
2022-10-06T14:02:36.516Z,21.67
2022-10-06T14:05:24.093Z,22.04
2022-10-06T14:07:52.570Z,22.09
2022-10-06T14:13:01.665Z,21.61
2022-10-06T14:15:40.426Z,22.14
2022-10-06T14:18:08.443Z,22.04
2022-10-06T14:20:46.915Z,21.60
2022-10-06T14:23:49.843Z,21.14
2022-10-06T14:26:19.446Z,20.78
2022-10-06T14:28:51.396Z,20.96
2022-10-06T14:31:21.730Z,21.16
2022-10-06T14:33:52.240Z,20.88
2022-10-06T14:36:22.961Z,21.13
2022-10-06T14:38:52.345Z,20.79
2022-10-06T14:41:24.911Z,20.69
2022-10-06T14:43:56.658Z,20.61
2022-10-06T14:46:26.850Z,20.92
2022-10-06T14:48:55.332Z,20.60
2022-10-06T14:51:24.559Z,20.78
2022-10-06T14:53:54.363Z,21.25
2022-10-06T14:56:23.872Z,21.49
2022-10-06T14:58:53.011Z,21.33
2022-10-06T15:01:24.756Z,21.06
2022-10-06T15:03:54.825Z,21.48
2022-10-06T15:06:40.160Z,20.89
2022-10-06T15:09:09.876Z,21.12
2022-10-06T15:11:38.794Z,20.70
2022-10-06T15:14:08.654Z,20.82
2022-10-06T15:16:40.564Z,20.58
2022-10-06T15:19:10.998Z,20.95
2022-10-06T15:21:39.991Z,20.76
2022-10-06T15:24:09.573Z,20.55
2022-10-06T15:26:55.290Z,20.55
2022-10-06T15:29:23.207Z,20.43
2022-10-06T15:31:53.141Z,20.56
2022-10-06T15:34:25.284Z,20.04
2022-10-06T15:36:54.321Z,20.19
2022-10-06T15:39:24.705Z,20.45
2022-10-06T15:41:52.866Z,20.16
2022-10-06T15:44:21.219Z,19.83
2022-10-06T15:46:50.868Z,20.26
2022-10-06T15:49:20.917Z,20.45
2022-10-06T15:51:52.766Z,19.71
2022-10-06T15:54:23.673Z,19.90
2022-10-06T15:56:53.395Z,19.88
2022-10-06T15:59:24.066Z,19.65
2022-10-06T16:01:55.872Z,19.51
2022-10-06T16:04:31.446Z,19.17
2022-10-06T16:07:01.422Z,19.50
2022-10-06T16:09:31.173Z,19.44
2022-10-06T16:12:01.724Z,19.67
2022-10-06T16:14:30.359Z,19.76
2022-10-06T16:17:01.964Z,19.61
2022-10-06T16:19:32.226Z,19.54
2022-10-06T16:22:01.981Z,19.19
2022-10-06T16:24:29.883Z,19.10
2022-10-06T16:26:59.836Z,19.09
2022-10-06T16:29:28.883Z,19.06
2022-10-06T16:31:57.507Z,18.85
2022-10-06T16:34:30.378Z,18.54
2022-10-06T16:36:58.366Z,18.47
2022-10-06T16:39:27.741Z,18.33
2022-10-06T16:41:55.761Z,18.27
2022-10-06T16:44:23.768Z,18.11
2022-10-06T16:46:51.662Z,18.03
2022-10-06T16:49:19.866Z,17.84
2022-10-06T16:51:47.839Z,17.63
2022-10-06T16:54:18.217Z,17.53
2022-10-06T16:56:51.451Z,17.05
2022-10-06T16:59:20.882Z,16.98
2022-10-06T17:01:50.200Z,16.84
2022-10-06T17:04:20.090Z,16.37
2022-10-06T17:06:50.044Z,16.73
2022-10-06T17:09:19.305Z,16.79
2022-10-06T17:11:50.153Z,16.38
2022-10-06T17:14:19.034Z,16.39
2022-10-06T17:16:48.218Z,16.18
2022-10-06T17:19:17.442Z,15.81
2022-10-06T17:21:48.121Z,15.74
2022-10-06T17:24:18.584Z,15.26
2022-10-06T17:26:49.392Z,15.40
2022-10-06T17:29:19.374Z,15.37
2022-10-06T17:31:48.379Z,15.15
2022-10-06T17:34:21.160Z,14.81
2022-10-06T17:36:51.621Z,14.43
2022-10-06T17:39:21.189Z,14.25
2022-10-06T17:41:52.611Z,14.33
2022-10-06T17:44:23.244Z,14.55
2022-10-06T17:46:53.916Z,14.55
2022-10-06T17:49:23.958Z,14.48
2022-10-06T17:51:53.390Z,14.32
2022-10-06T17:54:23.830Z,14.24
2022-10-06T17:56:54.804Z,14.05
2022-10-06T17:59:24.622Z,13.91
2022-10-06T18:01:56.339Z,13.78
2022-10-06T18:04:24.964Z,13.08
2022-10-06T18:06:55.006Z,12.67
2022-10-06T18:09:23.119Z,12.99
2022-10-06T18:11:54.897Z,13.11
2022-10-06T18:14:26.138Z,13.06
2022-10-06T18:16:57.679Z,12.35
2022-10-06T18:19:29.982Z,12.18
2022-10-06T18:22:00.567Z,12.00
2022-10-06T18:24:30.350Z,12.37
2022-10-06T18:27:00.930Z,12.29
2022-10-06T18:29:31.119Z,12.49
2022-10-06T18:32:16.048Z,12.19
2022-10-06T18:37:35.281Z,12.34
2022-10-06T18:40:06.177Z,12.36
2022-10-06T18:42:34.517Z,12.52
2022-10-06T18:45:21.365Z,12.15
2022-10-06T18:48:07.004Z,11.56
2022-10-06T18:50:35.141Z,12.01
2022-10-06T18:53:04.452Z,12.26
2022-10-06T18:55:32.605Z,12.20
2022-10-06T18:58:00.464Z,12.10
2022-10-06T19:00:29.710Z,12.07
2022-10-06T19:02:57.713Z,12.04
2022-10-06T19:05:25.802Z,11.96
2022-10-06T19:07:54.506Z,11.74
2022-10-06T19:10:22.957Z,11.82
2022-10-06T19:12:50.898Z,11.81
2022-10-06T19:15:21.136Z,11.60
2022-10-06T19:17:51.086Z,11.89
2022-10-06T19:20:19.805Z,11.40
2022-10-06T19:22:48.344Z,11.55
2022-10-06T19:25:18.740Z,11.41
2022-10-06T19:27:47.018Z,11.03
2022-10-06T19:30:15.887Z,10.50
2022-10-06T19:32:44.514Z,10.89
2022-10-06T19:35:13.731Z,11.06
2022-10-06T19:37:42.081Z,10.79
2022-10-06T19:40:11.415Z,10.81
2022-10-06T19:42:47.479Z,10.55
2022-10-06T19:45:16.484Z,10.81
2022-10-06T19:47:46.445Z,10.98
2022-10-06T19:50:17.167Z,10.58
2022-10-06T19:52:45.411Z,9.51
2022-10-06T19:55:13.422Z,9.90
2022-10-06T19:57:41.801Z,10.32
2022-10-06T20:00:11.237Z,10.05
2022-10-06T20:02:44.783Z,10.22
2022-10-06T20:05:14.237Z,9.71
2022-10-06T20:07:45.407Z,9.65
2022-10-06T20:10:14.808Z,9.88
2022-10-06T20:12:43.118Z,10.18
2022-10-06T20:15:12.824Z,10.17
2022-10-06T20:17:42.283Z,9.93
2022-10-06T20:20:10.522Z,9.35
2022-10-06T20:22:38.371Z,10.04
2022-10-06T20:25:08.050Z,10.02
2022-10-06T20:27:35.944Z,9.97
2022-10-06T20:30:04.016Z,9.78
2022-10-06T20:32:31.865Z,9.82
2022-10-06T20:35:00.121Z,9.96
2022-10-06T20:37:28.039Z,9.88
2022-10-06T20:40:13.507Z,9.99
2022-10-06T20:42:45.061Z,9.86
2022-10-06T20:45:13.166Z,9.70
2022-10-06T20:47:41.405Z,9.98
2022-10-06T20:50:10.821Z,9.98
2022-10-06T20:52:38.681Z,9.91
2022-10-06T20:55:08.742Z,9.83
2022-10-06T20:57:36.897Z,9.88
2022-10-06T21:00:07.284Z,9.66
2022-10-06T21:02:35.391Z,8.99
2022-10-06T21:05:03.474Z,8.57
2022-10-06T21:07:31.704Z,9.02
2022-10-06T21:09:59.776Z,9.21
2022-10-06T21:12:28.607Z,9.24
2022-10-06T21:14:57.529Z,8.62
2022-10-06T21:17:26.858Z,8.47
2022-10-06T21:19:54.884Z,8.79
2022-10-06T21:22:22.822Z,8.97
2022-10-06T21:24:50.836Z,9.06
2022-10-06T21:27:19.265Z,9.23
2022-10-06T21:29:47.830Z,9.13
2022-10-06T21:32:15.839Z,8.89
2022-10-06T21:34:45.151Z,8.75
2022-10-06T21:37:13.906Z,8.85
2022-10-06T21:39:42.313Z,8.30
2022-10-06T21:42:10.408Z,8.27
2022-10-06T21:44:38.408Z,8.55
2022-10-06T21:47:06.696Z,8.49
2022-10-06T21:49:34.760Z,8.32
2022-10-06T21:52:05.525Z,8.45
2022-10-06T21:54:33.620Z,8.55
2022-10-06T21:57:01.655Z,8.53
2022-10-06T21:59:29.644Z,7.72
2022-10-06T22:01:58.317Z,8.17
2022-10-06T22:04:26.506Z,8.26
2022-10-06T22:06:54.452Z,8.25
2022-10-06T22:09:24.033Z,8.30
2022-10-06T22:11:53.004Z,8.36
2022-10-06T22:14:21.263Z,7.96
2022-10-06T22:16:49.552Z,8.06
2022-10-06T22:19:18.515Z,8.37
2022-10-06T22:21:49.262Z,8.47
2022-10-06T22:24:19.473Z,8.32
2022-10-06T22:26:49.856Z,8.04
2022-10-06T22:29:19.255Z,8.20
2022-10-06T22:31:48.737Z,8.35
2022-10-06T22:34:18.905Z,8.39
2022-10-06T22:36:47.160Z,8.24
2022-10-06T22:39:15.224Z,8.13
2022-10-06T22:41:43.415Z,8.12
2022-10-06T22:44:12.835Z,8.36
2022-10-06T22:46:41.103Z,8.06
2022-10-06T22:49:09.139Z,7.90
2022-10-06T22:51:37.258Z,8.07
2022-10-06T22:54:05.708Z,8.14
2022-10-06T22:56:35.217Z,8.18
2022-10-06T22:59:03.650Z,7.95
2022-10-06T23:01:33.835Z,8.11
2022-10-06T23:04:01.951Z,7.86
2022-10-06T23:06:31.455Z,7.51
2022-10-06T23:09:00.246Z,7.30
2022-10-06T23:11:28.748Z,7.48
2022-10-06T23:13:56.803Z,7.69
2022-10-06T23:16:24.984Z,7.55
2022-10-06T23:18:55.220Z,7.54
2022-10-06T23:21:27.602Z,7.65
2022-10-06T23:23:59.187Z,7.68
2022-10-06T23:26:27.735Z,7.60
2022-10-06T23:28:57.728Z,7.69
2022-10-06T23:31:26.800Z,7.54
2022-10-06T23:33:56.674Z,7.20
2022-10-06T23:36:24.833Z,7.65
2022-10-06T23:38:52.867Z,7.49
2022-10-06T23:41:21.546Z,7.50
2022-10-06T23:43:49.908Z,7.58
2022-10-06T23:46:18.600Z,7.58
2022-10-06T23:48:46.601Z,7.35
2022-10-06T23:51:16.918Z,7.35
2022-10-06T23:53:45.145Z,7.30
2022-10-06T23:56:13.814Z,6.69
2022-10-06T23:58:42.828Z,6.93
